Dillard, Oregon
Current Conditions -  °F | °C
As of 2:53 AM on Saturday 25 Oct 2014 (Local Time) from KRBG Reporting Station
Overcast Overcast  
Wind Chill: 55°   Ceiling: 800
Heat Index: 55°   Visibility: 10mi
Dew Point: 52°   Wind: 3mph
Humidity: 89%   Direction: 290°WNW
Pressure: 29.56"   Gusts: NA
Location:  43.1°N, 123.43°W
Report Text: KRBG 250953Z AUTO 29003KT 10SM OVC008 13/11 A2956 RMK AO2 SLP007 T01280111 $
Loading
Personal Weather Stations






























Interactive Weather Map
Tropical Storm Tracking
New forecast layout! Learn more

10-Day Weather Forecast

Advertisements
Track Severe Weather on mobile